TimeEST,TemperatureF,Dew PointF,Humidity,Sea Level PressureIn,VisibilityMPH,Wind Direction,Wind SpeedMPH,Gust SpeedMPH,PrecipitationIn,Events,Conditions,WindDirDegrees,DateUTC
12:55 AM,35.1,32.0,89,30.09,5.0,Calm,Calm,-,N/A,,Mostly Cloudy,0,2012-12-03 05:55:00
1:06 AM,35.1,32.0,89,30.07,3.0,Calm,Calm,-,N/A,,Scattered Clouds,0,2012-12-03 06:06:00
1:55 AM,33.1,30.9,92,30.09,2.5,Calm,Calm,-,N/A,,Clear,0,2012-12-03 06:55:00
2:12 AM,33.1,30.9,92,30.07,1.0,Calm,Calm,-,N/A,,Clear,0,2012-12-03 07:12:00
2:20 AM,33.1,30.9,92,30.07,0.8,East,3.5,-,N/A,,Clear,100,2012-12-03 07:20:00
2:27 AM,33.1,30.9,92,30.07,1.5,East,3.5,-,N/A,,Clear,90,2012-12-03 07:27:00
2:43 AM,33.1,30.9,92,30.07,0.5,Calm,Calm,-,N/A,Fog,Fog,0,2012-12-03 07:43:00
2:55 AM,33.1,30.9,92,30.09,0.8,SE,3.5,-,N/A,,Mist,130,2012-12-03 07:55:00
3:18 AM,33.1,30.9,92,30.07,0.8,East,3.5,-,N/A,,Clear,90,2012-12-03 08:18:00
3:28 AM,33.1,30.9,92,30.07,0.8,East,4.6,-,N/A,,Mist,100,2012-12-03 08:28:00
3:55 AM,32.0,30.9,96,30.09,0.5,ESE,4.6,-,N/A,Fog,Fog,110,2012-12-03 08:55:00
4:05 AM,33.1,30.9,92,30.06,2.0,ESE,4.6,-,N/A,,Mostly Cloudy,110,2012-12-03 09:05:00
4:09 AM,33.1,30.9,92,30.06,3.0,ESE,5.8,-,N/A,,Scattered Clouds,120,2012-12-03 09:09:00
4:55 AM,33.1,30.9,92,30.08,2.5,East,3.5,-,N/A,,Scattered Clouds,100,2012-12-03 09:55:00
5:00 AM,32.0,30.9,96,30.06,1.5,East,3.5,-,N/A,,Mostly Cloudy,90,2012-12-03 10:00:00
5:10 AM,32.0,30.0,92,30.06,0.5,East,3.5,-,N/A,Fog,Fog,80,2012-12-03 10:10:00
5:55 AM,32.0,30.0,92,30.06,0.5,East,4.6,-,N/A,Fog,Fog,90,2012-12-03 10:55:00
6:27 AM,32.0,30.9,96,30.04,1.2,East,3.5,-,N/A,,Overcast,90,2012-12-03 11:27:00
6:43 AM,33.1,30.9,92,30.05,2.5,Calm,Calm,-,N/A,,Overcast,0,2012-12-03 11:43:00
6:55 AM,33.1,30.9,92,30.06,2.5,East,3.5,-,N/A,,Overcast,100,2012-12-03 11:55:00
7:11 AM,34.0,32.0,92,30.05,4.0,ESE,5.8,-,N/A,,Overcast,120,2012-12-03 12:11:00
7:55 AM,34.0,33.1,96,30.06,4.0,ESE,4.6,-,N/A,,Overcast,110,2012-12-03 12:55:00
8:55 AM,36.0,34.0,93,30.05,5.0,SE,11.5,18.4,N/A,,Overcast,130,2012-12-03 13:55:00
9:47 AM,37.0,35.1,93,30.04,3.0,SE,10.4,-,N/A,,Overcast,140,2012-12-03 14:47:00
9:55 AM,37.0,35.1,93,30.05,3.0,SE,8.1,-,N/A,,Overcast,130,2012-12-03 14:55:00
10:55 AM,37.9,35.1,89,30.03,3.0,SE,12.7,18.4,N/A,,Overcast,130,2012-12-03 15:55:00
11:08 AM,37.9,36.0,93,30.01,2.5,ESE,11.5,18.4,N/A,,Overcast,120,2012-12-03 16:08:00
11:23 AM,37.9,36.0,93,30.00,1.8,SE,12.7,19.6,N/A,,Overcast,130,2012-12-03 16:23:00
11:55 AM,37.9,36.0,93,29.99,1.5,ESE,10.4,-,N/A,,Overcast,110,2012-12-03 16:55:00
12:55 PM,37.9,37.0,97,29.95,1.0,ESE,9.2,-,N/A,,Overcast,110,2012-12-03 17:55:00
1:18 PM,39.0,37.0,93,29.91,0.8,ESE,9.2,-,N/A,,Overcast,120,2012-12-03 18:18:00
1:55 PM,39.9,37.9,93,29.91,0.2,East,9.2,-,N/A,Fog,Fog,100,2012-12-03 18:55:00
2:55 PM,41.0,39.0,93,29.87,0.2,ESE,9.2,-,N/A,Fog,Fog,110,2012-12-03 19:55:00
3:55 PM,42.1,39.9,92,29.84,0.2,ESE,9.2,-,N/A,Fog,Fog,120,2012-12-03 20:55:00
4:55 PM,43.0,42.1,97,29.81,0.8,ESE,10.4,20.7,N/A,,Mist,120,2012-12-03 21:55:00
5:34 PM,44.1,42.1,93,29.77,1.0,SE,15.0,20.7,N/A,,Mist,130,2012-12-03 22:34:00
5:48 PM,44.1,42.1,93,29.77,0.8,SE,12.7,23.0,N/A,,Mist,130,2012-12-03 22:48:00
5:55 PM,44.1,42.1,93,29.78,0.8,SE,11.5,24.2,N/A,,Mist,130,2012-12-03 22:55:00
6:55 PM,45.0,43.0,93,29.75,0.2,ESE,10.4,-,N/A,Fog,Fog,120,2012-12-03 23:55:00
7:46 PM,45.0,44.1,97,29.72,0.2,SE,9.2,-,0.01,Fog-Rain-Thunderstorm,Light Thunderstorms and Rain,130,2012-12-04 00:46:00
7:55 PM,45.0,44.1,97,29.72,0.2,ESE,11.5,-,0.03,Fog-Rain-Thunderstorm,Light Thunderstorms and Rain,120,2012-12-04 00:55:00
8:02 PM,45.0,44.1,97,29.70,0.5,ESE,9.2,-,0.01,Fog-Rain,Light Rain,120,2012-12-04 01:02:00
8:55 PM,46.0,44.1,93,29.66,0.2,ESE,9.2,-,0.02,Fog,Fog,120,2012-12-04 01:55:00
9:55 PM,48.9,46.9,93,29.63,0.5,SE,10.4,-,0.00,Fog-Rain,Light Rain,140,2012-12-04 02:55:00
10:08 PM,48.9,46.9,93,29.61,1.2,SE,9.2,-,0.01,Rain,Light Rain,140,2012-12-04 03:08:00
10:31 PM,50.0,48.0,93,29.60,2.0,SE,9.2,-,0.03,Rain,Light Rain,140,2012-12-04 03:31:00
10:48 PM,51.1,48.9,92,29.59,3.0,SSE,6.9,-,0.03,Rain,Light Rain,160,2012-12-04 03:48:00
10:55 PM,51.1,48.9,92,29.60,2.5,SSE,8.1,-,0.06,Rain,Rain,160,2012-12-04 03:55:00
11:00 PM,51.1,50.0,96,29.59,3.0,SSE,6.9,-,0.02,Rain,Light Rain,150,2012-12-04 04:00:00
11:08 PM,51.1,50.0,96,29.59,2.5,South,6.9,-,0.07,Rain,Rain,180,2012-12-04 04:08:00
11:17 PM,51.1,50.0,96,29.58,1.5,SSE,8.1,-,0.12,Rain,Heavy Rain,160,2012-12-04 04:17:00
11:27 PM,52.0,50.0,93,29.58,2.0,South,8.1,-,0.24,Rain,Light Rain,170,2012-12-04 04:27:00
11:33 PM,52.0,50.0,93,29.58,3.0,South,5.8,-,0.24,Rain,Light Rain,170,2012-12-04 04:33:00
11:42 PM,52.0,50.0,93,29.59,3.0,SSW,6.9,-,0.25,Rain,Light Rain,210,2012-12-04 04:42:00
11:53 PM,51.8,50.0,94,29.59,5.0,South,9.2,-,0.26,Rain,Light Rain,190,2012-12-04 04:53:00
11:55 PM,52.0,50.0,93,29.60,4.0,SSW,8.1,-,0.26,Rain,Light Rain,200,2012-12-04 04:55:00